sensor_id;sensor_type;location;lat;lon;timestamp;P1;durP1;ratioP1;P2;durP2;ratioP2
8183;SDS011;4133;48.752;9.088;2023-05-02T00:00:44;5.80;;;5.30;;
8183;SDS011;4133;48.752;9.088;2023-05-02T00:03:10;6.50;;;4.90;;
8183;SDS011;4133;48.752;9.088;2023-05-02T00:05:36;6.10;;;5.50;;
8183;SDS011;4133;48.752;9.088;2023-05-02T00:08:02;5.73;;;5.13;;
8183;SDS011;4133;48.752;9.088;2023-05-02T00:10:29;6.20;;;5.20;;
8183;SDS011;4133;48.752;9.088;2023-05-02T00:12:55;6.00;;;4.77;;
8183;SDS011;4133;48.752;9.088;2023-05-02T00:15:21;5.87;;;5.27;;
8183;SDS011;4133;48.752;9.088;2023-05-02T00:17:47;8.17;;;5.67;;
8183;SDS011;4133;48.752;9.088;2023-05-02T00:20:13;6.73;;;5.60;;
8183;SDS011;4133;48.752;9.088;2023-05-02T00:22:39;7.13;;;4.70;;
8183;SDS011;4133;48.752;9.088;2023-05-02T00:25:05;4.97;;;4.57;;
8183;SDS011;4133;48.752;9.088;2023-05-02T00:27:31;5.40;;;4.27;;
8183;SDS011;4133;48.752;9.088;2023-05-02T00:29:58;4.93;;;4.43;;
8183;SDS011;4133;48.752;9.088;2023-05-02T00:32:24;5.20;;;4.60;;
8183;SDS011;4133;48.752;9.088;2023-05-02T00:34:50;5.20;;;4.70;;
8183;SDS011;4133;48.752;9.088;2023-05-02T00:37:16;6.97;;;4.93;;
8183;SDS011;4133;48.752;9.088;2023-05-02T00:39:42;7.27;;;4.63;;
8183;SDS011;4133;48.752;9.088;2023-05-02T00:42:09;4.90;;;4.40;;
8183;SDS011;4133;48.752;9.088;2023-05-02T00:44:35;5.37;;;4.87;;
8183;SDS011;4133;48.752;9.088;2023-05-02T00:50:04;7.80;;;4.70;;
8183;SDS011;4133;48.752;9.088;2023-05-02T00:52:30;4.10;;;3.73;;
8183;SDS011;4133;48.752;9.088;2023-05-02T00:54:57;4.00;;;3.70;;
8183;SDS011;4133;48.752;9.088;2023-05-02T00:57:24;3.67;;;3.37;;
8183;SDS011;4133;48.752;9.088;2023-05-02T00:59:50;3.17;;;2.90;;
8183;SDS011;4133;48.752;9.088;2023-05-02T01:07:18;5.23;;;4.27;;
8183;SDS011;4133;48.752;9.088;2023-05-02T01:09:54;5.07;;;4.30;;
8183;SDS011;4133;48.752;9.088;2023-05-02T01:12:27;5.50;;;4.10;;
8183;SDS011;4133;48.752;9.088;2023-05-02T01:14:56;9.83;;;4.90;;
8183;SDS011;4133;48.752;9.088;2023-05-02T01:17:23;5.80;;;5.07;;
8183;SDS011;4133;48.752;9.088;2023-05-02T01:19:55;5.93;;;5.33;;
8183;SDS011;4133;48.752;9.088;2023-05-02T01:22:21;5.60;;;5.10;;
8183;SDS011;4133;48.752;9.088;2023-05-02T01:25:07;6.83;;;5.53;;
8183;SDS011;4133;48.752;9.088;2023-05-02T01:27:42;7.37;;;5.33;;
8183;SDS011;4133;48.752;9.088;2023-05-02T01:30:12;6.03;;;5.30;;
8183;SDS011;4133;48.752;9.088;2023-05-02T01:32:40;9.20;;;5.80;;
8183;SDS011;4133;48.752;9.088;2023-05-02T01:35:08;5.77;;;5.23;;
8183;SDS011;4133;48.752;9.088;2023-05-02T01:37:35;5.77;;;5.27;;
8183;SDS011;4133;48.752;9.088;2023-05-02T01:40:03;5.70;;;4.90;;
8183;SDS011;4133;48.752;9.088;2023-05-02T01:42:30;7.17;;;5.20;;
8183;SDS011;4133;48.752;9.088;2023-05-02T01:44:57;6.73;;;5.33;;
8183;SDS011;4133;48.752;9.088;2023-05-02T01:47:25;6.83;;;5.90;;
8183;SDS011;4133;48.752;9.088;2023-05-02T01:49:52;8.80;;;5.93;;
8183;SDS011;4133;48.752;9.088;2023-05-02T01:52:18;8.40;;;5.50;;
8183;SDS011;4133;48.752;9.088;2023-05-02T01:54:46;5.50;;;4.80;;
8183;SDS011;4133;48.752;9.088;2023-05-02T01:57:12;6.50;;;5.40;;
8183;SDS011;4133;48.752;9.088;2023-05-02T01:59:39;5.83;;;5.33;;
8183;SDS011;4133;48.752;9.088;2023-05-02T02:02:07;6.03;;;4.80;;
8183;SDS011;4133;48.752;9.088;2023-05-02T02:04:34;9.67;;;8.67;;
8183;SDS011;4133;48.752;9.088;2023-05-02T02:07:01;8.63;;;7.70;;
8183;SDS011;4133;48.752;9.088;2023-05-02T02:09:28;8.37;;;7.10;;
8183;SDS011;4133;48.752;9.088;2023-05-02T02:12:01;9.17;;;6.27;;
8183;SDS011;4133;48.752;9.088;2023-05-02T02:14:32;7.20;;;6.10;;
8183;SDS011;4133;48.752;9.088;2023-05-02T02:16:58;7.33;;;6.47;;
8183;SDS011;4133;48.752;9.088;2023-05-02T02:19:26;10.90;;;7.33;;
8183;SDS011;4133;48.752;9.088;2023-05-02T02:21:54;12.73;;;8.07;;
8183;SDS011;4133;48.752;9.088;2023-05-02T02:24:21;11.57;;;7.97;;
8183;SDS011;4133;48.752;9.088;2023-05-02T02:26:49;7.73;;;4.97;;
8183;SDS011;4133;48.752;9.088;2023-05-02T02:29:15;5.37;;;4.20;;
8183;SDS011;4133;48.752;9.088;2023-05-02T02:31:41;5.33;;;4.37;;
8183;SDS011;4133;48.752;9.088;2023-05-02T02:34:07;9.50;;;5.40;;
8183;SDS011;4133;48.752;9.088;2023-05-02T02:42:13;4.20;;;3.80;;
8183;SDS011;4133;48.752;9.088;2023-05-02T02:44:46;4.40;;;4.00;;
8183;SDS011;4133;48.752;9.088;2023-05-02T02:55:16;4.60;;;4.10;;
8183;SDS011;4133;48.752;9.088;2023-05-02T02:57:46;5.80;;;5.20;;
8183;SDS011;4133;48.752;9.088;2023-05-02T03:00:18;5.30;;;4.80;;
8183;SDS011;4133;48.752;9.088;2023-05-02T03:02:46;8.50;;;5.53;;
8183;SDS011;4133;48.752;9.088;2023-05-02T03:05:13;6.17;;;5.57;;
8183;SDS011;4133;48.752;9.088;2023-05-02T03:07:39;6.97;;;5.83;;
8183;SDS011;4133;48.752;9.088;2023-05-02T03:10:05;7.27;;;5.80;;
8183;SDS011;4133;48.752;9.088;2023-05-02T03:12:31;6.30;;;5.67;;
8183;SDS011;4133;48.752;9.088;2023-05-02T03:17:43;7.60;;;5.97;;
8183;SDS011;4133;48.752;9.088;2023-05-02T03:20:09;6.90;;;5.77;;
8183;SDS011;4133;48.752;9.088;2023-05-02T03:22:35;5.50;;;4.80;;
8183;SDS011;4133;48.752;9.088;2023-05-02T03:25:01;5.33;;;4.83;;
8183;SDS011;4133;48.752;9.088;2023-05-02T03:27:27;7.67;;;4.60;;
8183;SDS011;4133;48.752;9.088;2023-05-02T03:29:53;5.10;;;4.60;;
8183;SDS011;4133;48.752;9.088;2023-05-02T03:32:19;5.93;;;5.40;;
8183;SDS011;4133;48.752;9.088;2023-05-02T03:34:45;5.70;;;5.10;;
8183;SDS011;4133;48.752;9.088;2023-05-02T03:37:11;7.03;;;5.80;;
8183;SDS011;4133;48.752;9.088;2023-05-02T03:39:37;6.10;;;5.50;;
8183;SDS011;4133;48.752;9.088;2023-05-02T03:42:04;6.00;;;5.40;;
8183;SDS011;4133;48.752;9.088;2023-05-02T03:44:30;5.33;;;4.83;;
8183;SDS011;4133;48.752;9.088;2023-05-02T03:46:56;5.93;;;4.93;;
8183;SDS011;4133;48.752;9.088;2023-05-02T03:49:22;4.97;;;4.30;;
8183;SDS011;4133;48.752;9.088;2023-05-02T03:51:48;5.77;;;4.50;;
8183;SDS011;4133;48.752;9.088;2023-05-02T03:54:14;5.17;;;4.67;;
8183;SDS011;4133;48.752;9.088;2023-05-02T03:56:40;4.93;;;4.30;;
8183;SDS011;4133;48.752;9.088;2023-05-02T03:59:08;6.60;;;4.40;;
8183;SDS011;4133;48.752;9.088;2023-05-02T04:01:36;5.10;;;4.60;;
8183;SDS011;4133;48.752;9.088;2023-05-02T04:04:02;5.53;;;4.53;;
8183;SDS011;4133;48.752;9.088;2023-05-02T04:06:29;5.37;;;4.87;;
8183;SDS011;4133;48.752;9.088;2023-05-02T04:08:55;5.53;;;5.00;;
8183;SDS011;4133;48.752;9.088;2023-05-02T04:11:23;5.80;;;5.20;;
8183;SDS011;4133;48.752;9.088;2023-05-02T04:13:51;6.07;;;4.73;;
8183;SDS011;4133;48.752;9.088;2023-05-02T04:16:17;5.70;;;5.20;;
8183;SDS011;4133;48.752;9.088;2023-05-02T04:18:43;5.97;;;5.27;;
8183;SDS011;4133;48.752;9.088;2023-05-02T04:21:08;6.37;;;5.50;;
8183;SDS011;4133;48.752;9.088;2023-05-02T04:23:35;8.07;;;6.17;;
8183;SDS011;4133;48.752;9.088;2023-05-02T04:26:00;5.90;;;5.40;;
8183;SDS011;4133;48.752;9.088;2023-05-02T04:28:27;7.50;;;5.50;;
8183;SDS011;4133;48.752;9.088;2023-05-02T04:30:53;4.87;;;4.47;;
8183;SDS011;4133;48.752;9.088;2023-05-02T04:36:23;5.10;;;4.60;;
8183;SDS011;4133;48.752;9.088;2023-05-02T04:38:53;5.20;;;3.27;;
8183;SDS011;4133;48.752;9.088;2023-05-02T04:41:19;5.53;;;3.20;;
8183;SDS011;4133;48.752;9.088;2023-05-02T04:43:45;4.50;;;3.73;;
8183;SDS011;4133;48.752;9.088;2023-05-02T04:46:11;4.80;;;4.10;;
8183;SDS011;4133;48.752;9.088;2023-05-02T04:48:37;4.57;;;3.97;;
8183;SDS011;4133;48.752;9.088;2023-05-02T04:51:06;4.23;;;3.83;;
8183;SDS011;4133;48.752;9.088;2023-05-02T04:53:33;5.57;;;4.23;;
8183;SDS011;4133;48.752;9.088;2023-05-02T04:55:59;6.37;;;4.37;;
8183;SDS011;4133;48.752;9.088;2023-05-02T04:58:25;5.00;;;4.50;;
8183;SDS011;4133;48.752;9.088;2023-05-02T05:00:51;4.77;;;4.33;;
8183;SDS011;4133;48.752;9.088;2023-05-02T05:03:19;5.00;;;4.50;;
8183;SDS011;4133;48.752;9.088;2023-05-02T05:05:45;5.03;;;4.63;;
8183;SDS011;4133;48.752;9.088;2023-05-02T05:08:11;7.60;;;5.30;;
8183;SDS011;4133;48.752;9.088;2023-05-02T05:10:37;6.37;;;5.07;;
8183;SDS011;4133;48.752;9.088;2023-05-02T05:13:04;5.57;;;5.00;;
8183;SDS011;4133;48.752;9.088;2023-05-02T05:15:30;5.87;;;5.37;;
8183;SDS011;4133;48.752;9.088;2023-05-02T05:17:56;6.10;;;4.60;;
8183;SDS011;4133;48.752;9.088;2023-05-02T05:20:22;6.00;;;4.73;;
8183;SDS011;4133;48.752;9.088;2023-05-02T05:22:48;5.63;;;5.13;;
8183;SDS011;4133;48.752;9.088;2023-05-02T05:25:14;6.10;;;5.60;;
8183;SDS011;4133;48.752;9.088;2023-05-02T05:27:40;7.77;;;6.10;;
8183;SDS011;4133;48.752;9.088;2023-05-02T05:30:07;8.40;;;6.80;;
8183;SDS011;4133;48.752;9.088;2023-05-02T05:35:03;7.30;;;6.43;;
8183;SDS011;4133;48.752;9.088;2023-05-02T05:37:29;7.87;;;6.43;;
8183;SDS011;4133;48.752;9.088;2023-05-02T05:39:55;6.67;;;5.97;;
8183;SDS011;4133;48.752;9.088;2023-05-02T05:42:21;7.03;;;6.37;;
8183;SDS011;4133;48.752;9.088;2023-05-02T05:44:47;9.20;;;6.40;;
8183;SDS011;4133;48.752;9.088;2023-05-02T05:47:17;7.20;;;6.37;;
8183;SDS011;4133;48.752;9.088;2023-05-02T05:49:44;8.23;;;6.77;;
8183;SDS011;4133;48.752;9.088;2023-05-02T05:52:10;7.60;;;5.90;;
8183;SDS011;4133;48.752;9.088;2023-05-02T05:54:36;8.47;;;6.73;;
8183;SDS011;4133;48.752;9.088;2023-05-02T05:57:02;11.03;;;6.30;;
8183;SDS011;4133;48.752;9.088;2023-05-02T05:59:28;10.57;;;7.03;;
8183;SDS011;4133;48.752;9.088;2023-05-02T06:01:53;7.90;;;7.20;;
8183;SDS011;4133;48.752;9.088;2023-05-02T06:04:19;7.93;;;7.13;;
8183;SDS011;4133;48.752;9.088;2023-05-02T06:06:45;7.70;;;7.00;;
8183;SDS011;4133;48.752;9.088;2023-05-02T06:09:11;10.10;;;7.43;;
8183;SDS011;4133;48.752;9.088;2023-05-02T06:11:38;7.93;;;7.13;;
8183;SDS011;4133;48.752;9.088;2023-05-02T06:14:04;8.07;;;7.27;;
8183;SDS011;4133;48.752;9.088;2023-05-02T06:16:30;10.37;;;8.37;;
8183;SDS011;4133;48.752;9.088;2023-05-02T06:18:56;8.73;;;7.87;;
8183;SDS011;4133;48.752;9.088;2023-05-02T06:21:22;10.10;;;7.97;;
8183;SDS011;4133;48.752;9.088;2023-05-02T06:23:48;9.20;;;8.03;;
8183;SDS011;4133;48.752;9.088;2023-05-02T06:26:13;9.13;;;8.17;;
8183;SDS011;4133;48.752;9.088;2023-05-02T06:28:40;8.67;;;7.87;;
8183;SDS011;4133;48.752;9.088;2023-05-02T06:31:06;9.10;;;8.17;;
8183;SDS011;4133;48.752;9.088;2023-05-02T06:36:32;11.43;;;8.80;;
8183;SDS011;4133;48.752;9.088;2023-05-02T06:38:58;9.70;;;8.70;;
8183;SDS011;4133;48.752;9.088;2023-05-02T06:41:24;9.43;;;8.53;;
8183;SDS011;4133;48.752;9.088;2023-05-02T06:43:50;10.47;;;8.77;;
8183;SDS011;4133;48.752;9.088;2023-05-02T06:46:16;10.57;;;9.47;;
8183;SDS011;4133;48.752;9.088;2023-05-02T06:48:44;11.20;;;9.63;;
8183;SDS011;4133;48.752;9.088;2023-05-02T06:51:10;12.13;;;10.80;;
8183;SDS011;4133;48.752;9.088;2023-05-02T06:53:36;12.27;;;10.33;;
8183;SDS011;4133;48.752;9.088;2023-05-02T06:56:02;13.43;;;10.63;;
8183;SDS011;4133;48.752;9.088;2023-05-02T06:58:29;12.93;;;11.60;;
8183;SDS011;4133;48.752;9.088;2023-05-02T07:00:55;12.90;;;11.60;;
8183;SDS011;4133;48.752;9.088;2023-05-02T07:03:21;13.53;;;12.13;;
8183;SDS011;4133;48.752;9.088;2023-05-02T07:05:47;13.73;;;11.80;;
8183;SDS011;4133;48.752;9.088;2023-05-02T07:08:13;14.67;;;13.00;;
8183;SDS011;4133;48.752;9.088;2023-05-02T07:10:39;17.57;;;13.43;;
8183;SDS011;4133;48.752;9.088;2023-05-02T07:13:05;16.20;;;13.77;;
8183;SDS011;4133;48.752;9.088;2023-05-02T07:15:31;15.27;;;13.67;;
8183;SDS011;4133;48.752;9.088;2023-05-02T07:17:57;17.67;;;15.10;;
8183;SDS011;4133;48.752;9.088;2023-05-02T07:20:23;16.63;;;13.93;;
8183;SDS011;4133;48.752;9.088;2023-05-02T07:22:49;15.33;;;13.43;;
8183;SDS011;4133;48.752;9.088;2023-05-02T07:25:15;16.13;;;14.30;;
8183;SDS011;4133;48.752;9.088;2023-05-02T07:27:41;15.83;;;14.23;;
8183;SDS011;4133;48.752;9.088;2023-05-02T07:30:07;16.87;;;14.03;;
8183;SDS011;4133;48.752;9.088;2023-05-02T07:32:44;16.50;;;14.73;;
8183;SDS011;4133;48.752;9.088;2023-05-02T07:35:10;18.10;;;15.80;;
8183;SDS011;4133;48.752;9.088;2023-05-02T07:37:36;18.03;;;15.67;;
8183;SDS011;4133;48.752;9.088;2023-05-02T07:40:02;17.73;;;15.83;;
8183;SDS011;4133;48.752;9.088;2023-05-02T07:42:29;18.83;;;16.57;;
8183;SDS011;4133;48.752;9.088;2023-05-02T07:44:55;19.00;;;17.00;;
8183;SDS011;4133;48.752;9.088;2023-05-02T07:47:21;17.63;;;15.83;;
8183;SDS011;4133;48.752;9.088;2023-05-02T07:49:50;18.37;;;16.30;;
8183;SDS011;4133;48.752;9.088;2023-05-02T07:52:17;19.20;;;16.30;;
8183;SDS011;4133;48.752;9.088;2023-05-02T07:54:43;18.40;;;15.23;;
8183;SDS011;4133;48.752;9.088;2023-05-02T07:57:10;18.63;;;16.63;;
8183;SDS011;4133;48.752;9.088;2023-05-02T07:59:37;18.27;;;16.37;;
8183;SDS011;4133;48.752;9.088;2023-05-02T08:02:03;17.93;;;16.03;;
8183;SDS011;4133;48.752;9.088;2023-05-02T08:04:29;20.03;;;17.40;;
8183;SDS011;4133;48.752;9.088;2023-05-02T08:06:55;20.10;;;18.03;;
8183;SDS011;4133;48.752;9.088;2023-05-02T08:09:21;20.77;;;16.87;;
8183;SDS011;4133;48.752;9.088;2023-05-02T08:11:47;20.50;;;18.30;;
8183;SDS011;4133;48.752;9.088;2023-05-02T08:14:14;21.87;;;19.27;;
8183;SDS011;4133;48.752;9.088;2023-05-02T08:16:40;22.27;;;19.43;;
8183;SDS011;4133;48.752;9.088;2023-05-02T08:19:07;22.27;;;19.43;;
8183;SDS011;4133;48.752;9.088;2023-05-02T08:21:33;21.80;;;18.83;;
8183;SDS011;4133;48.752;9.088;2023-05-02T08:23:59;22.80;;;19.20;;
8183;SDS011;4133;48.752;9.088;2023-05-02T08:26:25;21.33;;;18.93;;
8183;SDS011;4133;48.752;9.088;2023-05-02T08:28:52;22.57;;;20.17;;
8183;SDS011;4133;48.752;9.088;2023-05-02T08:31:18;26.10;;;21.07;;
8183;SDS011;4133;48.752;9.088;2023-05-02T08:33:59;26.33;;;20.47;;
8183;SDS011;4133;48.752;9.088;2023-05-02T08:36:25;23.17;;;19.93;;
8183;SDS011;4133;48.752;9.088;2023-05-02T08:38:52;26.90;;;18.07;;
8183;SDS011;4133;48.752;9.088;2023-05-02T08:41:18;22.77;;;18.47;;
8183;SDS011;4133;48.752;9.088;2023-05-02T08:43:45;21.33;;;19.07;;
8183;SDS011;4133;48.752;9.088;2023-05-02T08:46:12;23.07;;;19.87;;
8183;SDS011;4133;48.752;9.088;2023-05-02T08:48:39;22.37;;;19.90;;
8183;SDS011;4133;48.752;9.088;2023-05-02T08:51:13;21.10;;;18.57;;
8183;SDS011;4133;48.752;9.088;2023-05-02T08:53:39;21.43;;;18.30;;
8183;SDS011;4133;48.752;9.088;2023-05-02T08:56:06;22.25;;;18.95;;
8183;SDS011;4133;48.752;9.088;2023-05-02T08:58:32;21.27;;;18.27;;
8183;SDS011;4133;48.752;9.088;2023-05-02T09:01:02;19.58;;;17.58;;
8183;SDS011;4133;48.752;9.088;2023-05-02T09:03:32;19.03;;;17.03;;
8183;SDS011;4133;48.752;9.088;2023-05-02T09:06:03;21.13;;;16.10;;
8183;SDS011;4133;48.752;9.088;2023-05-02T09:08:30;21.95;;;16.45;;
8183;SDS011;4133;48.752;9.088;2023-05-02T09:10:56;16.43;;;14.63;;
8183;SDS011;4133;48.752;9.088;2023-05-02T09:13:32;16.57;;;13.33;;
8183;SDS011;4133;48.752;9.088;2023-05-02T09:18:29;16.90;;;14.77;;
8183;SDS011;4133;48.752;9.088;2023-05-02T09:20:56;19.25;;;15.80;;
8183;SDS011;4133;48.752;9.088;2023-05-02T09:23:30;18.98;;;16.92;;
8183;SDS011;4133;48.752;9.088;2023-05-02T09:25:57;18.83;;;16.35;;
8183;SDS011;4133;48.752;9.088;2023-05-02T09:28:45;20.02;;;15.35;;
8183;SDS011;4133;48.752;9.088;2023-05-02T09:31:10;17.83;;;15.25;;
8183;SDS011;4133;48.752;9.088;2023-05-02T09:33:46;18.70;;;15.55;;
8183;SDS011;4133;48.752;9.088;2023-05-02T09:36:13;16.77;;;15.05;;
8183;SDS011;4133;48.752;9.088;2023-05-02T09:38:39;17.55;;;14.82;;
8183;SDS011;4133;48.752;9.088;2023-05-02T09:41:06;19.33;;;14.80;;
8183;SDS011;4133;48.752;9.088;2023-05-02T09:43:31;15.60;;;13.63;;
8183;SDS011;4133;48.752;9.088;2023-05-02T09:45:58;16.35;;;13.52;;
8183;SDS011;4133;48.752;9.088;2023-05-02T09:48:25;16.55;;;14.43;;
8183;SDS011;4133;48.752;9.088;2023-05-02T09:50:52;16.98;;;15.23;;
8183;SDS011;4133;48.752;9.088;2023-05-02T09:53:18;15.77;;;14.10;;
8183;SDS011;4133;48.752;9.088;2023-05-02T09:55:44;15.68;;;13.60;;
8183;SDS011;4133;48.752;9.088;2023-05-02T09:58:20;14.25;;;12.75;;
8183;SDS011;4133;48.752;9.088;2023-05-02T10:00:46;15.00;;;13.40;;
8183;SDS011;4133;48.752;9.088;2023-05-02T10:03:16;14.35;;;12.70;;
8183;SDS011;4133;48.752;9.088;2023-05-02T10:05:43;19.83;;;14.23;;
8183;SDS011;4133;48.752;9.088;2023-05-02T10:08:09;15.55;;;13.95;;
8183;SDS011;4133;48.752;9.088;2023-05-02T10:10:36;16.98;;;14.93;;
8183;SDS011;4133;48.752;9.088;2023-05-02T10:13:03;16.92;;;15.13;;
8183;SDS011;4133;48.752;9.088;2023-05-02T10:15:30;17.65;;;15.68;;
8183;SDS011;4133;48.752;9.088;2023-05-02T10:17:59;16.80;;;13.98;;
8183;SDS011;4133;48.752;9.088;2023-05-02T10:20:35;15.00;;;13.00;;
8183;SDS011;4133;48.752;9.088;2023-05-02T10:23:02;20.80;;;12.82;;
8183;SDS011;4133;48.752;9.088;2023-05-02T10:25:30;13.20;;;11.80;;
8183;SDS011;4133;48.752;9.088;2023-05-02T10:27:57;16.80;;;12.45;;
8183;SDS011;4133;48.752;9.088;2023-05-02T10:30:24;15.25;;;11.40;;
8183;SDS011;4133;48.752;9.088;2023-05-02T10:32:51;13.98;;;11.52;;
8183;SDS011;4133;48.752;9.088;2023-05-02T10:35:20;13.48;;;11.45;;
8183;SDS011;4133;48.752;9.088;2023-05-02T10:37:47;11.70;;;10.57;;
8183;SDS011;4133;48.752;9.088;2023-05-02T10:40:13;9.98;;;8.98;;
8183;SDS011;4133;48.752;9.088;2023-05-02T10:42:41;9.73;;;8.60;;
8183;SDS011;4133;48.752;9.088;2023-05-02T10:45:50;14.02;;;9.52;;
8183;SDS011;4133;48.752;9.088;2023-05-02T10:50:45;11.98;;;9.82;;
8183;SDS011;4133;48.752;9.088;2023-05-02T10:53:20;10.50;;;8.57;;
8183;SDS011;4133;48.752;9.088;2023-05-02T10:56:06;10.32;;;9.02;;
8183;SDS011;4133;48.752;9.088;2023-05-02T10:58:32;10.82;;;9.68;;
8183;SDS011;4133;48.752;9.088;2023-05-02T11:03:52;12.68;;;10.05;;
8183;SDS011;4133;48.752;9.088;2023-05-02T11:06:19;14.05;;;10.68;;
8183;SDS011;4133;48.752;9.088;2023-05-02T11:08:45;13.18;;;10.75;;
8183;SDS011;4133;48.752;9.088;2023-05-02T11:13:55;13.32;;;10.52;;
8183;SDS011;4133;48.752;9.088;2023-05-02T11:16:21;12.20;;;10.90;;
8183;SDS011;4133;48.752;9.088;2023-05-02T11:18:57;13.77;;;10.80;;
8183;SDS011;4133;48.752;9.088;2023-05-02T11:21:24;19.08;;;11.88;;
8183;SDS011;4133;48.752;9.088;2023-05-02T11:23:52;14.88;;;11.93;;
8183;SDS011;4133;48.752;9.088;2023-05-02T11:26:38;14.73;;;11.93;;
8183;SDS011;4133;48.752;9.088;2023-05-02T11:29:04;13.20;;;11.90;;
8183;SDS011;4133;48.752;9.088;2023-05-02T11:34:02;11.85;;;10.65;;
8183;SDS011;4133;48.752;9.088;2023-05-02T11:36:29;14.05;;;10.70;;
8183;SDS011;4133;48.752;9.088;2023-05-02T11:38:56;11.65;;;10.40;;
8183;SDS011;4133;48.752;9.088;2023-05-02T11:41:22;12.40;;;11.02;;
8183;SDS011;4133;48.752;9.088;2023-05-02T11:43:48;11.85;;;10.65;;
8183;SDS011;4133;48.752;9.088;2023-05-02T11:46:27;13.35;;;11.63;;
8183;SDS011;4133;48.752;9.088;2023-05-02T11:48:53;12.93;;;11.55;;
8183;SDS011;4133;48.752;9.088;2023-05-02T11:51:23;13.57;;;12.18;;
8183;SDS011;4133;48.752;9.088;2023-05-02T11:53:50;12.48;;;11.18;;
8183;SDS011;4133;48.752;9.088;2023-05-02T11:56:21;12.13;;;10.82;;
8183;SDS011;4133;48.752;9.088;2023-05-02T11:58:56;13.63;;;10.73;;
8183;SDS011;4133;48.752;9.088;2023-05-02T12:01:23;14.73;;;13.23;;
8183;SDS011;4133;48.752;9.088;2023-05-02T12:03:48;16.52;;;13.32;;
8183;SDS011;4133;48.752;9.088;2023-05-02T12:06:16;17.20;;;14.25;;
8183;SDS011;4133;48.752;9.088;2023-05-02T12:08:43;15.02;;;13.43;;
8183;SDS011;4133;48.752;9.088;2023-05-02T12:11:12;14.85;;;12.90;;
8183;SDS011;4133;48.752;9.088;2023-05-02T12:13:43;13.98;;;11.45;;
8183;SDS011;4133;48.752;9.088;2023-05-02T12:16:10;12.80;;;11.43;;
8183;SDS011;4133;48.752;9.088;2023-05-02T12:18:36;15.27;;;12.20;;
8183;SDS011;4133;48.752;9.088;2023-05-02T12:21:02;13.18;;;11.85;;
8183;SDS011;4133;48.752;9.088;2023-05-02T12:23:28;12.30;;;11.10;;
8183;SDS011;4133;48.752;9.088;2023-05-02T12:25:54;12.57;;;11.27;;
8183;SDS011;4133;48.752;9.088;2023-05-02T12:28:20;12.38;;;11.18;;
8183;SDS011;4133;48.752;9.088;2023-05-02T12:30:48;13.33;;;11.93;;
8183;SDS011;4133;48.752;9.088;2023-05-02T12:33:16;16.55;;;14.85;;
8183;SDS011;4133;48.752;9.088;2023-05-02T12:35:42;15.30;;;13.70;;
8183;SDS011;4133;48.752;9.088;2023-05-02T12:38:14;15.95;;;14.27;;
8183;SDS011;4133;48.752;9.088;2023-05-02T12:40:53;14.00;;;12.60;;
8183;SDS011;4133;48.752;9.088;2023-05-02T12:43:22;16.30;;;14.25;;
8183;SDS011;4133;48.752;9.088;2023-05-02T12:45:49;15.93;;;13.27;;
8183;SDS011;4133;48.752;9.088;2023-05-02T12:48:24;16.55;;;14.82;;
8183;SDS011;4133;48.752;9.088;2023-05-02T12:50:51;16.02;;;14.43;;
8183;SDS011;4133;48.752;9.088;2023-05-02T12:53:32;17.08;;;13.93;;
8183;SDS011;4133;48.752;9.088;2023-05-02T12:56:02;15.27;;;13.68;;
8183;SDS011;4133;48.752;9.088;2023-05-02T12:58:28;17.13;;;15.25;;
8183;SDS011;4133;48.752;9.088;2023-05-02T13:00:55;17.10;;;14.95;;
8183;SDS011;4133;48.752;9.088;2023-05-02T13:03:21;17.17;;;14.82;;
8183;SDS011;4133;48.752;9.088;2023-05-02T13:05:52;16.10;;;14.50;;
8183;SDS011;4133;48.752;9.088;2023-05-02T13:08:18;16.52;;;14.57;;
8183;SDS011;4133;48.752;9.088;2023-05-02T13:10:44;15.93;;;14.25;;
8183;SDS011;4133;48.752;9.088;2023-05-02T13:13:10;14.88;;;13.38;;
8183;SDS011;4133;48.752;9.088;2023-05-02T13:15:36;15.88;;;14.18;;
8183;SDS011;4133;48.752;9.088;2023-05-02T13:18:02;17.23;;;13.15;;
8183;SDS011;4133;48.752;9.088;2023-05-02T13:20:28;14.73;;;13.23;;
8183;SDS011;4133;48.752;9.088;2023-05-02T13:22:55;16.83;;;14.43;;
8183;SDS011;4133;48.752;9.088;2023-05-02T13:25:21;17.23;;;13.25;;
8183;SDS011;4133;48.752;9.088;2023-05-02T13:27:47;17.42;;;14.60;;
8183;SDS011;4133;48.752;9.088;2023-05-02T13:30:13;14.93;;;13.38;;
8183;SDS011;4133;48.752;9.088;2023-05-02T13:32:55;14.65;;;13.02;;
8183;SDS011;4133;48.752;9.088;2023-05-02T13:35:22;15.90;;;13.60;;
8183;SDS011;4133;48.752;9.088;2023-05-02T13:37:49;17.27;;;14.73;;
8183;SDS011;4133;48.752;9.088;2023-05-02T13:40:15;15.15;;;13.55;;
8183;SDS011;4133;48.752;9.088;2023-05-02T13:42:42;14.88;;;12.98;;
8183;SDS011;4133;48.752;9.088;2023-05-02T13:45:08;13.93;;;12.43;;
8183;SDS011;4133;48.752;9.088;2023-05-02T13:47:34;15.02;;;12.98;;
8183;SDS011;4133;48.752;9.088;2023-05-02T13:50:00;15.02;;;13.48;;
8183;SDS011;4133;48.752;9.088;2023-05-02T13:52:26;14.57;;;13.02;;
8183;SDS011;4133;48.752;9.088;2023-05-02T13:54:52;14.13;;;12.63;;
8183;SDS011;4133;48.752;9.088;2023-05-02T13:57:18;14.30;;;12.75;;
8183;SDS011;4133;48.752;9.088;2023-05-02T13:59:44;14.88;;;11.57;;
8183;SDS011;4133;48.752;9.088;2023-05-02T14:02:10;14.93;;;12.07;;
8183;SDS011;4133;48.752;9.088;2023-05-02T14:04:36;12.85;;;11.32;;
8183;SDS011;4133;48.752;9.088;2023-05-02T14:07:02;12.80;;;10.40;;
8183;SDS011;4133;48.752;9.088;2023-05-02T14:09:27;12.77;;;10.82;;
8183;SDS011;4133;48.752;9.088;2023-05-02T14:11:53;11.80;;;10.60;;
8183;SDS011;4133;48.752;9.088;2023-05-02T14:14:20;11.20;;;10.05;;
8183;SDS011;4133;48.752;9.088;2023-05-02T14:16:46;10.60;;;9.35;;
8183;SDS011;4133;48.752;9.088;2023-05-02T14:19:12;12.30;;;10.65;;
8183;SDS011;4133;48.752;9.088;2023-05-02T14:21:38;11.57;;;10.27;;
8183;SDS011;4133;48.752;9.088;2023-05-02T14:24:05;10.15;;;9.02;;
8183;SDS011;4133;48.752;9.088;2023-05-02T14:26:31;11.93;;;8.90;;
8183;SDS011;4133;48.752;9.088;2023-05-02T14:28:57;10.70;;;8.73;;
8183;SDS011;4133;48.752;9.088;2023-05-02T14:31:23;11.93;;;9.02;;
8183;SDS011;4133;48.752;9.088;2023-05-02T14:34:01;12.35;;;9.23;;
8183;SDS011;4133;48.752;9.088;2023-05-02T14:36:27;11.38;;;9.48;;
8183;SDS011;4133;48.752;9.088;2023-05-02T14:38:53;9.57;;;8.57;;
8183;SDS011;4133;48.752;9.088;2023-05-02T14:41:19;12.30;;;9.32;;
8183;SDS011;4133;48.752;9.088;2023-05-02T14:43:45;11.27;;;8.80;;
8183;SDS011;4133;48.752;9.088;2023-05-02T14:46:11;10.75;;;9.57;;
8183;SDS011;4133;48.752;9.088;2023-05-02T14:48:37;10.85;;;9.10;;
8183;SDS011;4133;48.752;9.088;2023-05-02T14:51:03;9.57;;;8.05;;
8183;SDS011;4133;48.752;9.088;2023-05-02T14:53:29;12.50;;;8.82;;
8183;SDS011;4133;48.752;9.088;2023-05-02T14:55:55;9.93;;;7.70;;
8183;SDS011;4133;48.752;9.088;2023-05-02T14:58:21;10.05;;;8.70;;
8183;SDS011;4133;48.752;9.088;2023-05-02T15:00:47;8.57;;;7.63;;
8183;SDS011;4133;48.752;9.088;2023-05-02T15:03:13;9.93;;;7.63;;
8183;SDS011;4133;48.752;9.088;2023-05-02T15:05:39;13.63;;;8.43;;
8183;SDS011;4133;48.752;9.088;2023-05-02T15:08:05;9.65;;;8.25;;
8183;SDS011;4133;48.752;9.088;2023-05-02T15:10:35;10.98;;;9.27;;
8183;SDS011;4133;48.752;9.088;2023-05-02T15:13:01;9.85;;;8.05;;
8183;SDS011;4133;48.752;9.088;2023-05-02T15:15:28;11.25;;;8.07;;
8183;SDS011;4133;48.752;9.088;2023-05-02T15:17:54;9.52;;;8.20;;
8183;SDS011;4133;48.752;9.088;2023-05-02T15:20:20;9.23;;;7.55;;
8183;SDS011;4133;48.752;9.088;2023-05-02T15:22:46;12.23;;;8.05;;
8183;SDS011;4133;48.752;9.088;2023-05-02T15:25:12;8.57;;;6.45;;
8183;SDS011;4133;48.752;9.088;2023-05-02T15:27:38;7.10;;;5.80;;
8183;SDS011;4133;48.752;9.088;2023-05-02T15:30:04;7.40;;;6.10;;
8183;SDS011;4133;48.752;9.088;2023-05-02T15:32:37;7.40;;;6.13;;
8183;SDS011;4133;48.752;9.088;2023-05-02T15:35:04;7.80;;;6.57;;
8183;SDS011;4133;48.752;9.088;2023-05-02T15:37:32;8.13;;;6.80;;
8183;SDS011;4133;48.752;9.088;2023-05-02T15:39:58;7.97;;;6.20;;
8183;SDS011;4133;48.752;9.088;2023-05-02T15:42:24;8.13;;;5.90;;
8183;SDS011;4133;48.752;9.088;2023-05-02T15:44:50;10.15;;;6.57;;
8183;SDS011;4133;48.752;9.088;2023-05-02T15:47:17;6.75;;;5.47;;